Time;durP1;ratioP1;P1;durP2;ratioP2;P2;SDS_P1;SDS_P2;PMS_P1;PMS_P2;Temp;Humidity;BMP_temperature;BMP_pressure;BME280_temperature;BME280_humidity;BME280_pressure;Samples;Min_cycle;Max_cycle;Signal;HPM_P1;HPM_P2
2023/03/06 00:02:21;;;;;;;;;8.25;8.25;;;;;21.58;30.49;100446.78;5071936;27;47037;-72
2023/03/06 00:04:46;;;;;;;;;7.75;7.75;;;;;21.59;30.69;100437.81;5051919;28;45802;-72
2023/03/06 00:07:12;;;;;;;;;11.25;9.00;;;;;21.53;30.48;100422.31;5078748;27;68334;-72
2023/03/06 00:09:37;;;;;;;;;10.75;8.00;;;;;21.49;30.68;100420.88;5079308;28;45478;-73
2023/03/06 00:12:03;;;;;;;;;10.00;8.00;;;;;21.50;30.84;100427.91;5048161;28;47288;-72
2023/03/06 00:14:28;;;;;;;;;6.50;6.50;;;;;21.52;30.57;100431.28;5077030;27;45340;-72
2023/03/06 00:16:57;;;;;;;;;7.75;6.50;;;;;21.51;30.80;100425.09;5070152;28;59881;-73
2023/03/06 00:19:22;;;;;;;;;8.00;7.25;;;;;21.50;30.43;100426.06;5051913;28;45465;-73
2023/03/06 00:21:48;;;;;;;;;7.75;7.00;;;;;21.47;30.42;100428.13;5069688;27;46239;-72
2023/03/06 00:24:14;;;;;;;;;9.00;5.75;;;;;21.29;30.42;100395.78;5063002;28;45468;-72
2023/03/06 00:26:40;;;;;;;;;11.00;8.00;;;;;21.51;30.18;100422.44;5059492;28;45313;-72
2023/03/06 00:29:06;;;;;;;;;7.25;5.75;;;;;21.48;30.71;100422.69;5073647;28;45303;-72
2023/03/06 00:31:32;;;;;;;;;10.25;7.50;;;;;21.47;30.38;100418.31;5095856;27;46239;-73
2023/03/06 00:33:57;;;;;;;;;8.50;7.00;;;;;21.42;30.34;100409.81;5075262;28;45302;-72
2023/03/06 00:36:23;;;;;;;;;9.50;7.25;;;;;21.45;30.89;100409.56;5073151;27;45289;-72
2023/03/06 00:38:48;;;;;;;;;8.25;8.00;;;;;21.45;30.78;100403.41;5080821;28;45282;-72
2023/03/06 00:41:13;;;;;;;;;7.00;7.00;;;;;21.46;30.74;100407.78;5078889;28;58548;-71
2023/03/06 00:43:39;;;;;;;;;8.75;5.50;;;;;21.44;30.70;100407.88;5080299;27;45282;-70
2023/03/06 00:46:05;;;;;;;;;7.00;5.50;;;;;21.41;30.56;100400.97;5080667;27;45894;-70
2023/03/06 00:48:36;;;;;;;;;6.50;5.50;;;;;21.31;30.52;100385.84;5079672;27;45581;-70
2023/03/06 00:51:02;;;;;;;;;9.25;7.75;;;;;21.34;30.60;100389.13;5074027;28;45725;-70
2023/03/06 00:53:27;;;;;;;;;7.50;6.00;;;;;21.22;30.32;100363.47;5069514;28;45286;-70
2023/03/06 00:55:52;;;;;;;;;8.00;7.00;;;;;21.40;30.69;100403.75;5074296;27;63874;-71
2023/03/06 00:58:18;;;;;;;;;6.25;6.25;;;;;21.32;30.38;100396.38;5075811;28;46964;-70
2023/03/06 01:00:43;;;;;;;;;6.00;6.00;;;;;21.38;30.60;100401.22;5070656;28;45619;-71
2023/03/06 01:03:09;;;;;;;;;7.75;6.50;;;;;21.37;30.60;100410.19;5072400;28;45541;-71
2023/03/06 01:05:36;;;;;;;;;6.75;6.00;;;;;21.36;30.71;100403.16;5055659;28;67851;-71
2023/03/06 01:08:05;;;;;;;;;7.50;6.00;;;;;21.33;30.63;100395.41;5069337;28;45627;-71
2023/03/06 01:10:30;;;;;;;;;6.00;5.75;;;;;21.32;30.86;100395.50;5078676;28;47340;-71
2023/03/06 01:12:56;;;;;;;;;8.75;7.00;;;;;21.32;30.51;100404.38;5066040;27;45317;-71
2023/03/06 01:15:21;;;;;;;;;7.50;5.00;;;;;21.34;30.73;100401.59;5050955;28;45789;-71
2023/03/06 01:17:47;;;;;;;;;9.00;6.00;;;;;21.32;30.83;100400.84;5063752;28;46232;-71
2023/03/06 01:20:15;;;;;;;;;10.25;7.00;;;;;21.29;30.60;100395.78;5076638;27;45469;-70
2023/03/06 01:22:41;;;;;;;;;7.75;6.00;;;;;21.31;30.48;100393.84;5071553;28;45999;-71
2023/03/06 01:25:06;;;;;;;;;8.50;6.50;;;;;21.28;30.41;100394.91;5074803;27;68226;-71
2023/03/06 01:27:32;;;;;;;;;4.75;4.75;;;;;21.28;30.60;100396.72;5088740;27;45563;-72
2023/03/06 01:29:57;;;;;;;;;7.75;6.00;;;;;21.28;30.43;100402.06;5070928;27;46187;-71
2023/03/06 01:32:22;;;;;;;;;7.25;7.00;;;;;21.28;30.34;100400.22;5065805;27;50634;-72
2023/03/06 01:34:48;;;;;;;;;6.75;6.50;;;;;21.24;30.52;100388.13;5068063;27;46309;-72
2023/03/06 01:37:14;;;;;;;;;9.00;7.00;;;;;21.24;30.75;100388.13;5057608;28;71265;-72
2023/03/06 01:39:39;;;;;;;;;11.00;6.75;;;;;21.16;30.24;100372.78;5053131;28;47455;-71
2023/03/06 01:42:05;;;;;;;;;6.50;6.50;;;;;21.18;30.31;100380.63;5059160;28;45438;-72
2023/03/06 01:44:30;;;;;;;;;6.25;5.75;;;;;21.23;30.49;100381.97;5043251;27;45388;-72
2023/03/06 01:46:56;;;;;;;;;8.25;5.75;;;;;21.19;30.54;100372.50;5079201;27;45209;-72
2023/03/06 01:49:28;;;;;;;;;7.00;6.00;;;;;21.22;30.48;100377.59;5060230;28;46339;-72
2023/03/06 01:52:13;;;;;;;;;7.00;6.00;;;;;21.23;30.60;100373.16;5076155;27;45542;-72
2023/03/06 01:54:59;;;;;;;;;7.00;6.25;;;;;21.22;30.28;100379.44;5077607;27;45400;-72
2023/03/06 01:57:30;;;;;;;;;7.50;5.00;;;;;21.18;30.24;100370.00;5058803;28;45514;-72
2023/03/06 02:00:06;;;;;;;;;5.50;5.50;;;;;21.15;30.47;100360.41;5057713;28;48046;-72
2023/03/06 02:02:32;;;;;;;;;8.75;5.25;;;;;21.15;30.25;100365.75;5068167;28;45860;-71
2023/03/06 02:04:58;;;;;;;;;5.50;4.75;;;;;21.14;30.54;100363.19;5077242;28;45433;-71
2023/03/06 02:07:27;;;;;;;;;6.75;4.75;;;;;21.15;30.17;100359.59;5065040;28;45532;-71
2023/03/06 02:09:52;;;;;;;;;5.00;5.00;;;;;21.16;30.61;100362.13;5071784;28;45307;-71
2023/03/06 02:12:19;;;;;;;;;5.75;4.00;;;;;21.11;30.50;100353.66;5068621;27;45282;-72
2023/03/06 02:14:48;;;;;;;;;6.00;4.25;;;;;21.13;30.12;100356.19;5079041;27;45312;-72
2023/03/06 02:17:16;;;;;;;;;4.50;4.00;;;;;21.14;30.16;100349.88;5072724;27;45411;-72
2023/03/06 02:20:17;;;;;;;;;6.75;6.00;;;;;21.13;30.52;100349.06;5074236;28;48258;-71
2023/03/06 02:22:46;;;;;;;;;6.75;5.00;;;;;21.07;30.65;100346.00;5076565;27;45756;-72
2023/03/06 02:25:32;;;;;;;;;5.00;5.00;;;;;21.11;30.20;100351.00;5081903;27;45501;-72
2023/03/06 02:28:00;;;;;;;;;4.25;4.25;;;;;21.11;30.17;100344.81;5062966;27;45303;-72
2023/03/06 02:30:28;;;;;;;;;9.50;7.00;;;;;21.09;30.21;100344.94;5057922;28;46976;-72
2023/03/06 02:32:54;;;;;;;;;7.75;6.50;;;;;21.08;30.30;100343.25;5069467;27;46111;-72
2023/03/06 02:35:31;;;;;;;;;7.50;4.25;;;;;21.08;30.19;100335.25;5072901;27;55727;-71
2023/03/06 02:38:03;;;;;;;;;6.00;5.75;;;;;21.07;30.51;100330.03;5079742;27;45232;-71
2023/03/06 02:40:29;;;;;;;;;4.75;4.00;;;;;21.05;30.52;100325.72;5069562;28;45377;-72
2023/03/06 02:42:58;;;;;;;;;5.75;4.75;;;;;21.06;30.15;100323.88;5072174;27;45485;-71
2023/03/06 02:45:45;;;;;;;;;6.00;5.00;;;;;21.02;30.61;100315.28;5073302;28;45292;-71
2023/03/06 02:48:12;;;;;;;;;6.75;6.00;;;;;21.04;30.10;100312.53;5066946;27;45532;-72
2023/03/06 02:50:38;;;;;;;;;7.00;5.25;;;;;21.04;30.00;100323.16;5066029;28;47239;-71
2023/03/06 02:53:04;;;;;;;;;6.00;4.00;;;;;21.04;30.43;100320.50;5080239;28;45520;-72
2023/03/06 02:55:31;;;;;;;;;7.00;5.00;;;;;20.95;30.37;100299.94;5075514;27;45572;-71
2023/03/06 02:57:59;;;;;;;;;6.75;5.00;;;;;21.01;29.95;100310.94;5088541;27;45242;-71
2023/03/06 03:00:25;;;;;;;;;2.50;2.00;;;;;20.99;30.46;100304.88;5057267;28;47330;-72
2023/03/06 03:02:51;;;;;;;;;6.00;6.00;;;;;20.99;30.15;100302.22;5071474;28;45880;-72
2023/03/06 03:05:17;;;;;;;;;7.75;6.00;;;;;20.98;30.53;100294.34;5075669;27;45888;-72
2023/03/06 03:07:42;;;;;;;;;6.00;6.00;;;;;20.98;30.05;100300.56;5075050;27;45379;-71
2023/03/06 03:10:08;;;;;;;;;9.00;5.50;;;;;20.99;30.41;100306.72;5065788;28;45397;-71
2023/03/06 03:12:34;;;;;;;;;4.50;4.50;;;;;20.98;30.47;100308.53;5082333;28;45381;-73
2023/03/06 03:14:59;;;;;;;;;7.75;6.00;;;;;20.98;30.46;100307.66;5063624;28;60922;-71
2023/03/06 03:17:24;;;;;;;;;6.00;5.00;;;;;20.98;30.33;100299.69;5057598;28;45426;-72
2023/03/06 03:19:50;;;;;;;;;8.50;6.25;;;;;20.97;30.33;100295.34;5081963;27;45445;-71
2023/03/06 03:22:16;;;;;;;;;6.75;5.00;;;;;20.95;30.13;100294.63;5059610;28;74762;-71
2023/03/06 03:24:41;;;;;;;;;7.75;5.00;;;;;20.93;30.36;100283.22;5076153;27;45479;-72
2023/03/06 03:27:07;;;;;;;;;5.50;5.25;;;;;20.95;30.14;100282.16;5078760;27;48692;-72
2023/03/06 03:29:32;;;;;;;;;6.00;5.50;;;;;20.92;30.44;100286.88;5066511;28;46398;-72
2023/03/06 03:31:58;;;;;;;;;5.00;5.00;;;;;20.94;30.18;100291.09;5074207;27;45279;-73
2023/03/06 03:34:23;;;;;;;;;5.50;4.25;;;;;20.93;30.29;100293.88;5073556;27;45456;-72
2023/03/06 03:36:48;;;;;;;;;10.50;6.25;;;;;20.92;30.36;100290.38;5080607;27;45224;-73
2023/03/06 03:39:14;;;;;;;;;6.75;6.00;;;;;20.92;30.39;100292.19;5079486;27;67195;-72
2023/03/06 03:41:40;;;;;;;;;5.75;5.00;;;;;20.89;29.91;100290.59;5063045;28;45185;-72
2023/03/06 03:44:05;;;;;;;;;6.00;5.50;;;;;20.89;30.28;100285.28;5079829;27;45572;-72
2023/03/06 03:46:31;;;;;;;;;6.00;6.00;;;;;20.86;30.05;100281.06;5064523;27;64498;-72
2023/03/06 03:48:57;;;;;;;;;9.25;5.00;;;;;20.88;30.12;100277.44;5072432;27;68948;-73
2023/03/06 03:51:22;;;;;;;;;6.00;5.00;;;;;20.88;29.92;100277.44;5075814;28;46085;-72
2023/03/06 03:53:48;;;;;;;;;6.00;4.75;;;;;20.90;29.81;100283.50;5063219;27;62213;-72
2023/03/06 03:56:13;;;;;;;;;5.50;5.00;;;;;20.85;30.03;100283.84;5074131;28;45561;-72
2023/03/06 03:58:39;;;;;;;;;10.00;6.00;;;;;20.88;30.16;100280.94;5071381;28;46767;-72
2023/03/06 04:01:04;;;;;;;;;8.25;5.00;;;;;20.85;30.41;100276.69;5079724;27;66592;-72
2023/03/06 04:03:30;;;;;;;;;8.75;6.50;;;;;20.85;30.01;100278.50;5080060;27;68767;-72
2023/03/06 04:05:56;;;;;;;;;5.50;5.50;;;;;20.84;30.29;100275.00;5072771;27;45297;-72
2023/03/06 04:08:23;;;;;;;;;6.00;5.25;;;;;20.84;30.02;100266.16;5073391;27;46117;-72
2023/03/06 04:10:51;;;;;;;;;6.00;6.00;;;;;20.84;29.90;100269.69;5074310;27;45237;-72
2023/03/06 04:13:19;;;;;;;;;7.00;4.00;;;;;20.83;29.91;100268.00;5068861;28;45465;-72
2023/03/06 04:15:46;;;;;;;;;6.75;6.75;;;;;20.84;30.08;100267.03;5092978;27;45616;-72
2023/03/06 04:18:11;;;;;;;;;6.75;6.25;;;;;20.81;30.07;100259.28;5070414;28;45307;-72
2023/03/06 04:20:36;;;;;;;;;7.00;4.50;;;;;20.82;30.28;100260.13;5076368;27;45353;-72
2023/03/06 04:23:02;;;;;;;;;6.25;4.00;;;;;20.82;30.33;100261.00;5063878;28;70844;-72
2023/03/06 04:25:27;;;;;;;;;8.50;5.00;;;;;20.78;30.37;100248.88;5072938;27;71195;-72
2023/03/06 04:27:52;;;;;;;;;3.00;3.00;;;;;20.80;30.54;100251.44;5079523;28;45888;-72
2023/03/06 04:30:18;;;;;;;;;4.50;4.50;;;;;20.80;30.19;100246.94;5065580;27;67690;-72
2023/03/06 04:32:43;;;;;;;;;5.00;5.00;;;;;20.77;30.38;100239.22;5060729;28;45288;-72
2023/03/06 04:35:08;;;;;;;;;4.00;3.75;;;;;20.84;30.45;100244.88;5072657;27;75201;-72
2023/03/06 04:37:34;;;;;;;;;6.75;4.75;;;;;20.84;30.14;100244.88;5069705;28;46124;-72
2023/03/06 04:39:59;;;;;;;;;4.25;4.00;;;;;20.86;30.32;100242.97;5078442;28;45469;-72
2023/03/06 04:42:24;;;;;;;;;5.25;5.25;;;;;20.87;30.20;100247.31;5080235;27;62912;-73
2023/03/06 04:44:50;;;;;;;;;10.00;6.75;;;;;20.89;30.52;100247.22;5076807;28;58989;-73
2023/03/06 04:47:15;;;;;;;;;5.75;5.25;;;;;20.93;30.27;100244.19;5077878;27;67991;-72
2023/03/06 04:49:40;;;;;;;;;6.25;5.00;;;;;20.96;30.08;100257.22;5074241;28;64171;-72
2023/03/06 04:52:06;;;;;;;;;6.50;4.00;;;;;20.97;30.57;100247.47;5071608;28;45427;-72
2023/03/06 04:54:31;;;;;;;;;7.50;5.00;;;;;20.98;30.32;100249.13;5077584;28;45523;-72
2023/03/06 04:56:57;;;;;;;;;6.75;5.00;;;;;21.00;30.57;100247.19;5060635;28;45579;-72
2023/03/06 04:59:22;;;;;;;;;6.25;4.75;;;;;20.99;30.56;100249.03;5077882;27;45500;-72
2023/03/06 05:01:47;;;;;;;;;4.00;3.25;;;;;21.00;30.35;100239.22;5072475;28;45307;-72
2023/03/06 05:04:13;;;;;;;;;5.00;4.00;;;;;21.01;30.31;100240.94;5068557;28;65967;-72
2023/03/06 05:06:38;;;;;;;;;6.00;5.50;;;;;21.01;29.95;100238.25;5078105;27;75842;-73
2023/03/06 05:09:04;;;;;;;;;8.00;5.50;;;;;21.04;30.39;100244.19;5079910;27;56503;-72
2023/03/06 05:11:29;;;;;;;;;4.25;4.25;;;;;21.02;30.33;100237.31;5078251;28;45362;-72
2023/03/06 05:13:54;;;;;;;;;6.00;5.00;;;;;21.02;30.08;100234.66;5081085;27;74575;-73
2023/03/06 05:16:20;;;;;;;;;7.25;5.50;;;;;21.04;30.40;100238.88;5061089;28;55308;-72
2023/03/06 05:18:45;;;;;;;;;6.00;6.00;;;;;21.03;30.02;100242.50;5066966;28;66094;-73
2023/03/06 05:21:10;;;;;;;;;4.75;4.00;;;;;21.03;30.26;100236.31;5073350;28;56618;-72
2023/03/06 05:23:38;;;;;;;;;6.25;4.75;;;;;20.98;30.18;100236.69;5080220;27;45475;-72
2023/03/06 05:26:10;;;;;;;;;5.25;5.25;;;;;21.04;30.47;100246.00;5065466;27;45333;-72
2023/03/06 05:28:35;;;;;;;;;5.50;5.25;;;;;21.04;30.45;100244.19;5074540;28;45753;-72
2023/03/06 05:31:01;;;;;;;;;5.00;4.50;;;;;21.03;30.12;100244.31;5062785;27;45460;-72
2023/03/06 05:33:26;;;;;;;;;9.00;6.50;;;;;21.04;30.37;100244.19;5056884;28;45543;-72
2023/03/06 05:35:52;;;;;;;;;4.00;4.00;;;;;21.03;30.20;100241.66;5066300;28;67590;-72
2023/03/06 05:38:17;;;;;;;;;4.25;4.25;;;;;21.03;30.36;100238.97;5069005;28;45262;-72
2023/03/06 05:40:43;;;;;;;;;6.50;4.75;;;;;21.01;30.25;100239.09;5079051;28;60936;-71
2023/03/06 05:43:10;;;;;;;;;6.00;5.00;;;;;21.00;30.20;100236.56;5077135;27;45433;-73
2023/03/06 05:45:37;;;;;;;;;4.25;3.75;;;;;21.01;30.33;100230.28;5057880;28;47901;-72
2023/03/06 05:48:02;;;;;;;;;3.25;3.25;;;;;20.99;29.96;100227.75;5057752;28;45355;-72
2023/03/06 05:50:28;;;;;;;;;5.00;5.00;;;;;20.96;30.40;100222.66;5070694;27;45604;-71
2023/03/06 05:52:53;;;;;;;;;4.00;4.00;;;;;20.99;30.26;100229.56;5061575;28;50208;-72
2023/03/06 05:55:20;;;;;;;;;5.50;4.00;;;;;20.99;30.09;100227.75;5083402;27;68711;-71
2023/03/06 05:57:46;;;;;;;;;6.00;5.00;;;;;20.97;30.64;100218.19;5059992;28;45319;-72
2023/03/06 06:00:13;;;;;;;;;7.00;5.25;;;;;20.98;30.12;100219.88;5071031;28;45431;-72
2023/03/06 06:02:40;;;;;;;;;5.25;4.00;;;;;20.97;30.11;100210.22;5075579;28;45562;-72
2023/03/06 06:05:05;;;;;;;;;6.00;5.50;;;;;20.97;30.07;100215.53;5065429;28;45387;-72
2023/03/06 06:07:31;;;;;;;;;6.50;4.00;;;;;20.95;29.98;100193.53;5078091;28;45386;-71
2023/03/06 06:09:56;;;;;;;;;4.75;3.25;;;;;20.90;30.35;100171.78;5051800;27;47167;-72
2023/03/06 06:12:22;;;;;;;;;4.75;2.50;;;;;20.95;30.14;100180.25;5070741;28;62571;-72
2023/03/06 06:14:47;;;;;;;;;6.00;3.25;;;;;20.93;30.51;100174.16;5078064;27;45933;-72
2023/03/06 06:17:12;;;;;;;;;6.25;4.00;;;;;20.96;30.51;100180.09;5077175;28;45405;-72
2023/03/06 06:19:38;;;;;;;;;3.00;3.00;;;;;20.99;30.53;100182.50;5060987;27;66485;-72
2023/03/06 06:22:03;;;;;;;;;7.50;6.00;;;;;20.99;30.10;100187.84;5040990;28;73128;-71
2023/03/06 06:24:29;;;;;;;;;4.50;4.00;;;;;20.99;30.31;100179.00;5073018;28;67164;-72
2023/03/06 06:26:55;;;;;;;;;5.50;4.25;;;;;21.05;30.12;100191.81;5050338;28;45459;-71
2023/03/06 06:29:21;;;;;;;;;3.00;3.00;;;;;21.05;30.58;100206.00;5069847;28;45486;-72
2023/03/06 06:31:47;;;;;;;;;3.00;3.00;;;;;21.04;30.32;100196.31;5062199;28;45492;-72
2023/03/06 06:34:12;;;;;;;;;4.25;2.75;;;;;21.08;30.61;100201.38;5065728;28;75803;-71
2023/03/06 06:36:38;;;;;;;;;3.50;3.25;;;;;21.11;30.43;100206.47;5069707;27;70179;-72
2023/03/06 06:39:04;;;;;;;;;3.75;3.00;;;;;21.12;30.06;100210.81;5069529;27;45447;-72
2023/03/06 06:41:29;;;;;;;;;3.25;3.25;;;;;21.14;30.39;100211.53;5075029;27;45248;-72
2023/03/06 06:43:55;;;;;;;;;4.50;4.25;;;;;21.17;30.53;100221.94;5075263;28;46170;-71
2023/03/06 06:46:20;;;;;;;;;7.25;4.25;;;;;21.18;30.29;100231.63;5081916;27;45328;-72
2023/03/06 06:48:53;;;;;;;;;3.00;2.50;;;;;21.18;30.59;100221.81;5075153;27;45432;-72
2023/03/06 06:51:19;;;;;;;;;5.00;3.50;;;;;21.21;30.45;100226.03;5064261;28;45267;-72
2023/03/06 06:53:45;;;;;;;;;5.25;5.00;;;;;21.24;30.43;100233.78;5072298;27;45547;-71
2023/03/06 06:56:10;;;;;;;;;5.50;4.00;;;;;21.22;30.33;100225.91;5063684;27;60498;-72
2023/03/06 06:58:35;;;;;;;;;4.00;1.25;;;;;21.25;30.33;100222.19;5068392;27;45475;-71
2023/03/06 07:01:08;;;;;;;;;6.00;3.50;;;;;21.29;30.46;100236.91;5071998;27;45549;-72
2023/03/06 07:03:34;;;;;;;;;6.50;5.00;;;;;21.30;30.49;100235.97;5081360;27;45346;-72
2023/03/06 07:05:59;;;;;;;;;5.25;3.00;;;;;21.31;30.35;100234.97;5067992;28;48438;-72
2023/03/06 07:08:25;;;;;;;;;4.00;3.00;;;;;21.35;30.15;100235.56;5048969;28;45225;-71
2023/03/06 07:10:51;;;;;;;;;5.00;4.00;;;;;21.34;29.98;100232.06;5045590;28;48376;-71
2023/03/06 07:13:16;;;;;;;;;3.50;3.50;;;;;21.37;29.91;100238.94;5074200;28;47238;-71
2023/03/06 07:15:41;;;;;;;;;5.25;4.25;;;;;21.37;30.61;100230.97;5074913;27;67766;-71
2023/03/06 07:18:07;;;;;;;;;4.75;3.75;;;;;21.36;30.55;100230.13;5072348;28;58048;-72
2023/03/06 07:20:32;;;;;;;;;4.25;3.25;;;;;21.44;29.99;100234.81;5074448;27;69418;-72
2023/03/06 07:22:57;;;;;;;;;6.75;4.50;;;;;21.44;29.92;100237.50;5070453;27;68842;-72
2023/03/06 07:25:23;;;;;;;;;6.50;4.75;;;;;21.44;30.14;100232.16;5075221;27;45451;-72
2023/03/06 07:27:52;;;;;;;;;3.00;2.00;;;;;21.45;30.10;100227.72;5077241;27;45344;-72
2023/03/06 07:30:17;;;;;;;;;4.00;3.50;;;;;21.45;30.45;100228.53;5071708;28;45550;-72
2023/03/06 07:32:43;;;;;;;;;5.75;3.00;;;;;21.50;30.33;100242.38;5071493;27;46095;-72
2023/03/06 07:35:10;;;;;;;;;3.25;3.00;;;;;21.51;30.10;100238.72;5064235;28;69064;-72
2023/03/06 07:37:35;;;;;;;;;3.00;3.00;;;;;21.53;30.41;100238.59;5069864;27;45384;-72
2023/03/06 07:40:00;;;;;;;;;4.25;3.75;;;;;21.49;30.24;100232.69;5079335;28;71442;-72
2023/03/06 07:42:28;;;;;;;;;4.75;4.75;;;;;21.54;30.10;100234.97;5070767;28;45382;-72
2023/03/06 07:44:53;;;;;;;;;6.00;4.75;;;;;21.57;30.44;100232.91;5079723;28;45753;-72
2023/03/06 07:47:18;;;;;;;;;4.75;3.50;;;;;21.55;30.27;100226.03;5072256;28;63383;-72
2023/03/06 07:49:44;;;;;;;;;5.25;3.25;;;;;21.59;29.96;100238.13;5081272;27;46784;-72
2023/03/06 07:52:09;;;;;;;;;3.50;3.50;;;;;21.60;30.49;100235.34;5078956;28;74898;-72
2023/03/06 07:54:34;;;;;;;;;3.00;1.00;;;;;21.61;30.18;100225.50;5079170;27;45356;-72
2023/03/06 07:57:00;;;;;;;;;3.00;3.00;;;;;21.61;30.45;100234.34;5075045;27;62938;-72
2023/03/06 07:59:25;;;;;;;;;5.00;5.00;;;;;21.60;30.48;100227.34;5054409;28;45374;-72
2023/03/06 08:01:53;;;;;;;;;5.25;4.00;;;;;21.64;30.17;100229.72;5070229;28;46451;-72
2023/03/06 08:04:18;;;;;;;;;3.00;3.00;;;;;21.63;29.94;100226.22;5067665;27;45238;-72
2023/03/06 08:06:44;;;;;;;;;5.75;3.25;;;;;21.66;30.36;100243.78;5079305;27;56897;-72
2023/03/06 08:09:09;;;;;;;;;3.50;3.00;;;;;21.68;30.24;100240.03;5070941;28;72131;-72
2023/03/06 08:11:34;;;;;;;;;5.50;4.00;;;;;21.69;30.47;100235.53;5077512;27;65681;-72
2023/03/06 08:14:00;;;;;;;;;3.25;2.25;;;;;21.68;30.44;100237.34;5074446;27;64861;-72
2023/03/06 08:16:28;;;;;;;;;4.00;4.00;;;;;21.72;30.53;100241.44;5075860;27;59725;-72
2023/03/06 08:18:54;;;;;;;;;5.75;4.00;;;;;21.73;30.12;100234.31;5067096;28;45705;-72
2023/03/06 08:21:22;;;;;;;;;3.75;2.75;;;;;21.75;30.04;100240.38;5076362;28;47212;-72
2023/03/06 08:23:48;;;;;;;;;3.25;3.25;;;;;21.74;30.41;100236.00;5080876;27;45422;-72
2023/03/06 08:26:17;;;;;;;;;3.25;2.00;;;;;21.75;30.21;100241.22;5077203;28;45212;-72
2023/03/06 08:28:42;;;;;;;;;3.00;3.00;;;;;21.76;29.98;100242.03;5058376;28;45533;-72
2023/03/06 08:31:09;;;;;;;;;3.50;3.50;;;;;21.79;29.95;100247.13;5060817;27;48186;-72
2023/03/06 08:33:35;;;;;;;;;3.00;3.00;;;;;21.79;30.49;100244.47;5066685;28;45572;-72
2023/03/06 08:36:00;;;;;;;;;3.00;3.00;;;;;21.83;30.28;100250.38;5055644;28;45712;-72
2023/03/06 08:38:25;;;;;;;;;5.00;3.00;;;;;21.82;30.35;100251.38;5076743;28;71018;-72
2023/03/06 08:40:50;;;;;;;;;4.00;4.00;;;;;21.81;30.27;100253.16;5068810;27;74078;-72
2023/03/06 08:43:16;;;;;;;;;5.25;3.50;;;;;21.86;30.40;100260.81;5059972;28;57708;-72
2023/03/06 08:45:41;;;;;;;;;3.00;3.00;;;;;21.86;30.01;100247.47;5079315;28;59984;-72
2023/03/06 08:48:06;;;;;;;;;7.75;3.00;;;;;21.84;30.08;100258.25;5067879;27;52975;-72
2023/03/06 08:50:32;;;;;;;;;4.50;4.00;;;;;21.88;29.97;100259.69;5075881;27;66054;-72
2023/03/06 08:52:57;;;;;;;;;4.00;3.00;;;;;21.88;30.07;100259.69;5078311;28;65967;-72
2023/03/06 08:55:23;;;;;;;;;4.00;1.75;;;;;21.91;29.98;100261.28;5077019;28;45858;-72
2023/03/06 08:57:48;;;;;;;;;5.75;2.50;;;;;21.91;30.31;100261.28;5064344;27;45435;-73
2023/03/06 09:00:14;;;;;;;;;5.00;3.00;;;;;21.91;29.97;100261.28;5066304;27;72227;-72
2023/03/06 09:02:39;;;;;;;;;11.50;8.75;;;;;21.96;29.68;100264.41;5076729;28;45324;-75
2023/03/06 09:05:06;;;;;;;;;12.00;9.50;;;;;21.95;29.60;100258.22;5053986;28;64157;-77
2023/03/06 09:07:31;;;;;;;;;15.50;12.75;;;;;21.95;29.12;100265.38;5057430;28;45546;-79
2023/03/06 09:09:57;;;;;;;;;14.25;14.25;;;;;21.92;28.92;100269.13;5074982;28;45469;-76
2023/03/06 09:12:22;;;;;;;;;21.00;16.00;;;;;21.88;28.56;100270.34;5067781;27;45480;-71
2023/03/06 09:14:48;;;;;;;;;17.00;14.25;;;;;21.85;28.50;100270.63;5070809;28;45314;-71
2023/03/06 09:17:13;;;;;;;;;20.50;15.75;;;;;21.85;28.30;100272.41;5071857;27;45499;-72
2023/03/06 09:19:39;;;;;;;;;17.00;14.00;;;;;21.83;28.43;100269.03;5065819;28;60561;-71
2023/03/06 09:22:04;;;;;;;;;16.75;14.00;;;;;21.83;28.06;100274.38;5075576;28;45413;-72
2023/03/06 09:24:29;;;;;;;;;21.25;14.25;;;;;21.79;28.16;100277.25;5087426;27;45443;-72
2023/03/06 09:26:55;;;;;;;;;25.25;18.00;;;;;21.78;27.90;100275.59;5094977;27;45410;-71
2023/03/06 09:29:20;;;;;;;;;22.75;19.25;;;;;21.76;28.17;100269.56;5055839;28;47422;-72
2023/03/06 09:31:46;;;;;;;;;23.75;18.50;;;;;21.73;28.03;100267.13;5073372;27;45332;-72
2023/03/06 09:34:12;;;;;;;;;20.50;16.50;;;;;21.72;28.00;100270.75;5065898;28;45275;-71
2023/03/06 09:36:40;;;;;;;;;21.50;16.00;;;;;21.67;27.89;100272.94;5075217;27;45614;-71
2023/03/06 09:39:06;;;;;;;;;20.75;16.25;;;;;21.69;27.98;100283.47;5069935;28;46682;-71
2023/03/06 09:41:36;;;;;;;;;19.25;16.00;;;;;21.67;27.39;100280.94;5069287;28;45454;-73
2023/03/06 09:44:13;;;;;;;;;21.75;16.00;;;;;21.64;27.46;100280.31;5069686;27;46492;-72
2023/03/06 09:46:57;;;;;;;;;19.50;15.25;;;;;21.61;27.71;100284.94;5065640;28;45374;-72
2023/03/06 09:50:00;;;;;;;;;18.50;16.50;;;;;21.59;27.84;100289.53;5058226;27;46969;-71
2023/03/06 09:52:35;;;;;;;;;18.50;15.25;;;;;21.55;27.74;100285.44;5071128;27;45831;-71
2023/03/06 09:55:03;;;;;;;;;16.00;15.00;;;;;21.53;27.30;100290.06;5080420;27;45415;-71
2023/03/06 09:57:35;;;;;;;;;24.00;16.25;;;;;21.51;27.30;100276.00;5062587;28;45441;-72
2023/03/06 10:00:05;;;;;;;;;16.00;10.00;;;;;21.52;27.97;100279.53;5068251;28;46391;-71
2023/03/06 10:02:43;;;;;;;;;14.25;10.00;;;;;21.55;27.50;100280.13;5069294;28;45837;-71
2023/03/06 10:05:22;;;;;;;;;11.00;8.25;;;;;21.58;27.76;100279.00;5069423;28;45466;-71
2023/03/06 10:08:01;;;;;;;;;8.50;8.00;;;;;21.65;28.36;100276.72;5077756;28;45455;-70
2023/03/06 10:10:41;;;;;;;;;9.00;8.25;;;;;21.64;28.11;100275.00;5050479;28;48220;-71
2023/03/06 10:13:35;;;;;;;;;9.50;7.00;;;;;21.71;27.91;100271.75;5074784;28;45676;-71
2023/03/06 10:16:09;;;;;;;;;8.25;7.00;;;;;21.74;27.93;100265.31;5058819;28;45489;-71
2023/03/06 10:18:37;;;;;;;;;9.00;5.75;;;;;21.77;28.23;100257.91;5073312;27;46180;-72
2023/03/06 10:21:12;;;;;;;;;9.00;6.00;;;;;21.80;28.20;100264.81;5044712;28;47170;-72
2023/03/06 10:23:54;;;;;;;;;9.25;6.00;;;;;21.84;28.21;100266.25;5066606;28;45454;-72
2023/03/06 10:26:31;;;;;;;;;8.75;5.75;;;;;21.77;28.74;100252.56;5078617;28;45401;-72
2023/03/06 10:29:14;;;;;;;;;8.00;5.00;;;;;21.88;28.22;100253.53;5061804;28;45682;-72
2023/03/06 10:31:43;;;;;;;;;7.00;5.00;;;;;21.89;28.34;100248.06;5068153;27;48130;-72
2023/03/06 10:34:15;;;;;;;;;4.00;2.75;;;;;21.91;28.34;100253.28;5080818;27;45265;-72
2023/03/06 10:36:40;;;;;;;;;5.00;4.00;;;;;21.92;28.63;100252.28;5083373;27;45487;-72
2023/03/06 10:39:14;;;;;;;;;7.00;5.75;;;;;21.96;28.68;100253.75;5078042;28;59990;-72
2023/03/06 10:41:40;;;;;;;;;5.00;5.00;;;;;21.98;28.45;100257.13;5077196;28;46311;-72
2023/03/06 10:44:06;;;;;;;;;6.50;4.00;;;;;22.01;28.61;100256.88;5044540;28;53998;-72
2023/03/06 10:46:37;;;;;;;;;7.50;5.25;;;;;22.02;28.49;100257.72;5076130;28;45333;-72
2023/03/06 10:49:23;;;;;;;;;6.00;5.25;;;;;22.06;28.56;100249.34;5063070;28;45441;-72
2023/03/06 10:52:20;;;;;;;;;4.50;4.00;;;;;22.06;28.80;100241.34;5061915;27;45304;-72
2023/03/06 10:54:47;;;;;;;;;4.25;4.00;;;;;22.10;28.34;100253.44;5079068;27;45825;-72
2023/03/06 10:57:30;;;;;;;;;5.25;4.00;;;;;22.13;28.81;100255.88;5052209;28;45340;-72
2023/03/06 11:00:04;;;;;;;;;3.25;3.25;;;;;22.16;28.47;100252.09;5070055;28;45224;-72
2023/03/06 11:02:30;;;;;;;;;5.00;5.00;;;;;22.17;28.81;100251.97;5078278;27;46489;-72
2023/03/06 11:04:57;;;;;;;;;3.00;2.00;;;;;22.19;28.80;100246.50;5075872;27;45409;-72
2023/03/06 11:07:25;;;;;;;;;3.75;3.75;;;;;22.21;28.58;100241.88;5078697;27;45251;-72
2023/03/06 11:09:56;;;;;;;;;3.25;3.25;;;;;22.23;28.75;100242.59;5054484;28;45470;-72
2023/03/06 11:12:31;;;;;;;;;4.25;2.75;;;;;22.24;28.58;100233.63;5075472;27;46881;-72
2023/03/06 11:15:05;;;;;;;;;3.00;3.00;;;;;22.27;29.02;100229.88;5075141;28;45287;-72
2023/03/06 11:17:31;;;;;;;;;3.00;2.75;;;;;22.28;28.38;100226.25;5065673;28;45428;-72
2023/03/06 11:20:14;;;;;;;;;2.00;2.00;;;;;22.30;28.44;100225.13;5047642;28;45297;-72
2023/03/06 11:22:40;;;;;;;;;3.50;3.00;;;;;22.28;28.99;100226.25;5071205;27;46182;-72
2023/03/06 11:25:11;;;;;;;;;5.25;3.00;;;;;22.32;28.39;100222.34;5065140;28;45773;-72
2023/03/06 11:27:41;;;;;;;;;4.50;4.50;;;;;22.31;28.78;100213.50;5063729;28;45455;-71